Main page
METAR-TAF:

METAR-TAF

Airports :

Key Lake Airport

Key Lake, Saskatchewan, Canada

latitude: 57-15N, longitude: 105-37W, elevation: 509 m

Current weather observation

The report was made 27 minutes ago, at 00:00 UTC
Wind 7 kt from the East/Southeast with gusts up to 15 kt, varying between East/Northeast and Southeast
Temperature 12°C
Humidity 28%
Pressure 1011 hPa
Visibility: 14.5 km
Clear sky

METAR: CYKJ 250000Z AUTO 12007G15KT 070V130 9SM CLR 12/M06 A2986 RMK SLP141

Time: 18:27 (00:27 UTC)

Forecast

The report was made 5 hours and 47 minutes ago, at 18:40 UTC
Forecast valid from 24 at 19 UTC to 24 at 24 UTC
Wind 3 kt from variable directions
Visibility: 10 km
Clear sky
Becoming
from 24 at 19 UTC to 24 at 21 UTC
Wind 8 kt from the East/Southeast

TAF: CYKJ 241840Z 2419/2424 VRB03KT P6SM SKC BECMG 2419/2421 12008KT RMK FCST BASED ON AUTO OBS. NXT FCST BY 251000Z

Weather observations and forecasts of more than 4000 airports (METAR and TAF reports).

The available stations are represented by yellow and red dots on the map.

Hover mouse over dot to see the name of the station.

Then click to see weather observations and forecasts.

To change the map : click on the green buttons with a black cross to zoom in, on the green button with a dash to zoom out, or on the green arrows for adjacent maps.


METAR-TAF: